sensor_id;sensor_type;location;lat;lon;timestamp;P1;durP1;ratioP1;P2;durP2;ratioP2
14774;SDS011;7479;47.042;15.160;2023-03-21T09:09:56;1.70;;;1.43;;
14774;SDS011;7479;47.042;15.160;2023-03-21T09:15:10;1.30;;;1.20;;
14774;SDS011;7479;47.042;15.160;2023-03-21T09:20:05;4.30;;;1.50;;
14774;SDS011;7479;47.042;15.160;2023-03-21T09:25:04;2.13;;;1.30;;
14774;SDS011;7479;47.042;15.160;2023-03-21T09:30:02;1.63;;;1.20;;
14774;SDS011;7479;47.042;15.160;2023-03-21T09:34:56;1.93;;;1.20;;
14774;SDS011;7479;47.042;15.160;2023-03-21T09:39:50;1.70;;;1.10;;
14774;SDS011;7479;47.042;15.160;2023-03-21T09:50:06;0.90;;;0.90;;
14774;SDS011;7479;47.042;15.160;2023-03-21T09:55:08;1.30;;;1.20;;
14774;SDS011;7479;47.042;15.160;2023-03-21T10:00:11;2.67;;;1.07;;
14774;SDS011;7479;47.042;15.160;2023-03-21T10:05:15;1.83;;;1.20;;
14774;SDS011;7479;47.042;15.160;2023-03-21T10:10:14;1.57;;;1.00;;
14774;SDS011;7479;47.042;15.160;2023-03-21T10:15:10;3.30;;;1.50;;
14774;SDS011;7479;47.042;15.160;2023-03-21T10:20:11;2.13;;;1.10;;
14774;SDS011;7479;47.042;15.160;2023-03-21T10:25:13;3.55;;;1.35;;
14774;SDS011;7479;47.042;15.160;2023-03-21T10:30:10;2.83;;;2.27;;
14774;SDS011;7479;47.042;15.160;2023-03-21T10:35:13;2.58;;;1.60;;
14774;SDS011;7479;47.042;15.160;2023-03-21T10:40:09;3.77;;;1.80;;
14774;SDS011;7479;47.042;15.160;2023-03-21T10:45:12;3.72;;;1.23;;
14774;SDS011;7479;47.042;15.160;2023-03-21T10:50:11;1.43;;;1.33;;
14774;SDS011;7479;47.042;15.160;2023-03-21T10:55:14;3.80;;;1.30;;
14774;SDS011;7479;47.042;15.160;2023-03-21T11:00:12;1.50;;;1.40;;
14774;SDS011;7479;47.042;15.160;2023-03-21T11:05:16;2.58;;;1.10;;
14774;SDS011;7479;47.042;15.160;2023-03-21T11:10:15;2.10;;;1.30;;
14774;SDS011;7479;47.042;15.160;2023-03-21T11:15:24;1.40;;;1.30;;
14774;SDS011;7479;47.042;15.160;2023-03-21T11:20:21;1.30;;;1.20;;
14774;SDS011;7479;47.042;15.160;2023-03-21T11:25:20;4.25;;;2.33;;
14774;SDS011;7479;47.042;15.160;2023-03-21T11:30:19;1.92;;;1.40;;
14774;SDS011;7479;47.042;15.160;2023-03-21T11:35:15;1.42;;;1.30;;
14774;SDS011;7479;47.042;15.160;2023-03-21T11:45:24;3.58;;;1.58;;
14774;SDS011;7479;47.042;15.160;2023-03-21T11:50:22;2.13;;;1.40;;
14774;SDS011;7479;47.042;15.160;2023-03-21T11:55:36;2.92;;;1.90;;
14774;SDS011;7479;47.042;15.160;2023-03-21T12:00:38;2.35;;;1.75;;
14774;SDS011;7479;47.042;15.160;2023-03-21T12:05:41;4.28;;;2.00;;
14774;SDS011;7479;47.042;15.160;2023-03-21T12:10:41;4.82;;;1.80;;
14774;SDS011;7479;47.042;15.160;2023-03-21T12:15:41;2.80;;;1.55;;
14774;SDS011;7479;47.042;15.160;2023-03-21T12:20:45;2.00;;;1.50;;
14774;SDS011;7479;47.042;15.160;2023-03-21T12:25:45;1.77;;;1.50;;
14774;SDS011;7479;47.042;15.160;2023-03-21T12:30:48;2.80;;;1.70;;
14774;SDS011;7479;47.042;15.160;2023-03-21T12:35:50;1.60;;;1.50;;
14774;SDS011;7479;47.042;15.160;2023-03-21T12:41:04;3.80;;;1.83;;
14774;SDS011;7479;47.042;15.160;2023-03-21T12:46:13;2.70;;;1.65;;
14774;SDS011;7479;47.042;15.160;2023-03-21T12:51:12;1.55;;;1.45;;
14774;SDS011;7479;47.042;15.160;2023-03-21T12:56:11;1.60;;;1.50;;
14774;SDS011;7479;47.042;15.160;2023-03-21T13:01:10;4.72;;;1.40;;
14774;SDS011;7479;47.042;15.160;2023-03-21T13:06:08;3.00;;;1.50;;
14774;SDS011;7479;47.042;15.160;2023-03-21T13:11:05;2.20;;;1.60;;
14774;SDS011;7479;47.042;15.160;2023-03-21T13:16:03;2.35;;;1.80;;
14774;SDS011;7479;47.042;15.160;2023-03-21T13:21:03;1.75;;;1.60;;
14774;SDS011;7479;47.042;15.160;2023-03-21T13:26:03;1.73;;;1.63;;
14774;SDS011;7479;47.042;15.160;2023-03-21T13:31:16;3.63;;;1.52;;
14774;SDS011;7479;47.042;15.160;2023-03-21T13:36:12;2.35;;;1.30;;
14774;SDS011;7479;47.042;15.160;2023-03-21T13:41:08;2.00;;;1.30;;
14774;SDS011;7479;47.042;15.160;2023-03-21T13:46:05;1.67;;;1.30;;
14774;SDS011;7479;47.042;15.160;2023-03-21T13:51:02;3.30;;;2.30;;
14774;SDS011;7479;47.042;15.160;2023-03-21T13:55:58;2.45;;;1.40;;
14774;SDS011;7479;47.042;15.160;2023-03-21T14:01:12;3.28;;;1.35;;
14774;SDS011;7479;47.042;15.160;2023-03-21T14:06:15;4.70;;;1.50;;
14774;SDS011;7479;47.042;15.160;2023-03-21T14:11:11;2.33;;;1.67;;
14774;SDS011;7479;47.042;15.160;2023-03-21T14:16:09;1.75;;;1.65;;
14774;SDS011;7479;47.042;15.160;2023-03-21T14:21:05;3.17;;;1.73;;
14774;SDS011;7479;47.042;15.160;2023-03-21T14:26:15;3.13;;;1.75;;
14774;SDS011;7479;47.042;15.160;2023-03-21T14:31:11;2.95;;;1.80;;
14774;SDS011;7479;47.042;15.160;2023-03-21T14:36:09;5.38;;;2.00;;
14774;SDS011;7479;47.042;15.160;2023-03-21T14:41:20;1.80;;;1.70;;
14774;SDS011;7479;47.042;15.160;2023-03-21T14:46:15;3.50;;;1.80;;
14774;SDS011;7479;47.042;15.160;2023-03-21T14:51:13;2.10;;;1.67;;
14774;SDS011;7479;47.042;15.160;2023-03-21T14:56:08;3.20;;;1.80;;
14774;SDS011;7479;47.042;15.160;2023-03-21T15:01:13;3.08;;;1.90;;
14774;SDS011;7479;47.042;15.160;2023-03-21T15:06:09;4.97;;;1.80;;
14774;SDS011;7479;47.042;15.160;2023-03-21T15:11:05;2.10;;;1.50;;
14774;SDS011;7479;47.042;15.160;2023-03-21T15:16:01;2.78;;;1.30;;
14774;SDS011;7479;47.042;15.160;2023-03-21T15:20:58;2.03;;;1.55;;
14774;SDS011;7479;47.042;15.160;2023-03-21T15:25:55;2.72;;;1.42;;
14774;SDS011;7479;47.042;15.160;2023-03-21T15:30:50;2.92;;;1.65;;
14774;SDS011;7479;47.042;15.160;2023-03-21T15:35:45;1.70;;;1.60;;
14774;SDS011;7479;47.042;15.160;2023-03-21T15:40:46;3.05;;;2.05;;
14774;SDS011;7479;47.042;15.160;2023-03-21T15:45:44;2.33;;;1.55;;
14774;SDS011;7479;47.042;15.160;2023-03-21T15:50:40;3.20;;;1.50;;
14774;SDS011;7479;47.042;15.160;2023-03-21T15:55:42;3.80;;;2.40;;
14774;SDS011;7479;47.042;15.160;2023-03-21T16:00:40;2.40;;;1.60;;
14774;SDS011;7479;47.042;15.160;2023-03-21T16:05:36;5.82;;;4.50;;
14774;SDS011;7479;47.042;15.160;2023-03-21T16:10:32;6.78;;;2.90;;
14774;SDS011;7479;47.042;15.160;2023-03-21T16:15:28;4.22;;;2.20;;
14774;SDS011;7479;47.042;15.160;2023-03-21T16:20:24;8.95;;;2.13;;
14774;SDS011;7479;47.042;15.160;2023-03-21T16:25:23;7.25;;;3.00;;
14774;SDS011;7479;47.042;15.160;2023-03-21T16:30:18;4.05;;;3.60;;
14774;SDS011;7479;47.042;15.160;2023-03-21T16:35:13;6.47;;;2.55;;
14774;SDS011;7479;47.042;15.160;2023-03-21T16:45:19;6.43;;;4.03;;
14774;SDS011;7479;47.042;15.160;2023-03-21T16:50:17;5.22;;;3.30;;
14774;SDS011;7479;47.042;15.160;2023-03-21T16:55:15;10.73;;;3.22;;
14774;SDS011;7479;47.042;15.160;2023-03-21T17:00:12;5.93;;;3.08;;
14774;SDS011;7479;47.042;15.160;2023-03-21T17:05:11;6.97;;;3.50;;
14774;SDS011;7479;47.042;15.160;2023-03-21T17:10:06;8.60;;;3.60;;
14774;SDS011;7479;47.042;15.160;2023-03-21T17:15:08;9.93;;;3.50;;
14774;SDS011;7479;47.042;15.160;2023-03-21T17:20:10;13.13;;;6.05;;
14774;SDS011;7479;47.042;15.160;2023-03-21T17:25:09;12.77;;;5.45;;
14774;SDS011;7479;47.042;15.160;2023-03-21T17:30:05;21.67;;;6.45;;
14774;SDS011;7479;47.042;15.160;2023-03-21T17:35:09;39.75;;;8.63;;
14774;SDS011;7479;47.042;15.160;2023-03-21T17:40:03;18.50;;;9.80;;
14774;SDS011;7479;47.042;15.160;2023-03-21T17:45:00;27.30;;;8.50;;
